Wetterdaten: Woche 20.11.17 - 26.11.17 (KW47)
Datum Zeit Temp. A. Feuchte A. Luftdruck Regen Wind Richtung Taupunkt Windchill Windben
20.11.2017 00:00 5,3 C 71 % 1013,6 hPa 0,0 l/m 18,6 km/h N 0,4 C -2,1 C 46,7 km/h
20.11.2017 01:00 5,4 C 69 % 1013,5 hPa 0,0 l/m 17,4 km/h N 0,3 C -1,5 C 41,8 km/h
20.11.2017 02:00 5,3 C 71 % 1013,9 hPa 0,0 l/m 14,2 km/h N 0,5 C -0,1 C 42,6 km/h
20.11.2017 03:00 5,3 C 71 % 1014,3 hPa 0,0 l/m 13,6 km/h N 0,5 C 0,2 C 40,3 km/h
20.11.2017 04:00 5,2 C 72 % 1014,8 hPa 0,0 l/m 15,1 km/h N 0,6 C -0,7 C 40,6 km/h
20.11.2017 05:00 5,1 C 73 % 1015,3 hPa 0,0 l/m 13,9 km/h N 0,7 C -0,1 C 39,4 km/h
20.11.2017 06:00 5,1 C 74 % 1015,9 hPa 0,0 l/m 12,8 km/h N 0,8 C 0,4 C 43,5 km/h
20.11.2017 07:00 5,3 C 73 % 1017,0 hPa 0,0 l/m 11,2 km/h N 0,8 C 1,6 C 33,0 km/h
20.11.2017 08:00 5,1 C 76 % 1017,6 hPa 0,3 l/m 12,8 km/h N 1,3 C 0,5 C 31,8 km/h
20.11.2017 09:00 5,2 C 76 % 1018,1 hPa 0,0 l/m 12,6 km/h N 1,2 C 0,6 C 30,6 km/h
20.11.2017 10:00 5,9 C 71 % 1018,4 hPa 0,0 l/m 12,3 km/h N 1,1 C 1,7 C 33,4 km/h
20.11.2017 11:00 6,3 C 69 % 1018,5 hPa 0,0 l/m 13,4 km/h N 1,0 C 1,5 C 30,6 km/h
20.11.2017 12:00 6,6 C 67 % 1018,0 hPa 0,0 l/m 13,9 km/h N 0,9 C 1,7 C 31,8 km/h
20.11.2017 13:00 6,9 C 65 % 1017,6 hPa 0,0 l/m 14,3 km/h N 0,8 C 1,7 C 33,8 km/h
20.11.2017 14:00 6,6 C 66 % 1017,6 hPa 0,0 l/m 11,7 km/h N 0,8 C 2,8 C 32,2 km/h
20.11.2017 15:00 6,2 C 67 % 1017,4 hPa 0,0 l/m 13,6 km/h N 0,5 C 1,3 C 33,8 km/h
20.11.2017 16:00 5,9 C 65 % 1017,2 hPa 0,0 l/m 11,9 km/h N -0,1 C 1,9 C 31,0 km/h
20.11.2017 17:00 5,9 C 64 % 1017,7 hPa 0,0 l/m 11,4 km/h N -0,3 C 2,2 C 29,4 km/h
20.11.2017 18:00 5,5 C 68 % 1017,8 hPa 0,0 l/m 13,2 km/h N 0,1 C 0,7 C 33,0 km/h
20.11.2017 19:00 4,9 C 68 % 1017,8 hPa 0,0 l/m 12,1 km/h N -0,4 C 0,7 C 32,6 km/h
20.11.2017 20:00 4,7 C 69 % 1017,7 hPa 0,0 l/m 12,4 km/h N -0,4 C 0,3 C 33,8 km/h
20.11.2017 21:00 4,3 C 74 % 1017,7 hPa 0,0 l/m 12,8 km/h N 0,1 C -0,5 C 33,8 km/h
20.11.2017 22:00 3,7 C 80 % 1017,8 hPa 0,3 l/m 9,7 km/h N 0,5 C 0,9 C 24,9 km/h
20.11.2017 23:00 3,3 C 81 % 1017,7 hPa 0,5 l/m 3,0 km/h N 0,4 C 3,3 C 9,3 km/h
21.11.2017 00:00 2,9 C 83 % 1017,1 hPa 0,5 l/m 0,2 km/h N 0,2 C 2,9 C 2,8 km/h
21.11.2017 01:00 3,0 C 83 % 1016,7 hPa 1,0 l/m 0,0 km/h N 0,4 C 3,0 C 0,8 km/h
21.11.2017 02:00 3,1 C 83 % 1016,2 hPa 0,5 l/m 0,6 km/h N 0,5 C 3,1 C 4,4 km/h
21.11.2017 03:00 3,1 C 83 % 1015,5 hPa 0,8 l/m 0,2 km/h N 0,5 C 3,1 C 4,8 km/h
21.11.2017 04:00 2,9 C 83 % 1015,2 hPa 1,3 l/m 0,0 km/h N 0,3 C 2,9 C 1,6 km/h
21.11.2017 05:00 3,0 C 83 % 1014,8 hPa 3,1 l/m 0,0 km/h N 0,4 C 3,0 C 0,8 km/h
21.11.2017 06:00 3,1 C 83 % 1014,3 hPa 1,3 l/m 0,0 km/h N 0,5 C 3,1 C 1,6 km/h
21.11.2017 07:00 3,2 C 83 % 1014,3 hPa 0,5 l/m 0,0 km/h N 0,6 C 3,2 C 1,6 km/h
21.11.2017 08:00 3,6 C 83 % 1014,5 hPa 0,8 l/m 0,1 km/h N 1,1 C 3,6 C 5,6 km/h
21.11.2017 09:00 5,9 C 84 % 1014,4 hPa 1,0 l/m 4,0 km/h N 3,4 C 5,9 C 17,7 km/h
21.11.2017 10:00 7,6 C 83 % 1014,3 hPa 0,3 l/m 7,8 km/h N 5,0 C 6,5 C 24,1 km/h
21.11.2017 11:00 8,2 C 82 % 1013,9 hPa 1,6 l/m 8,5 km/h N 5,4 C 6,7 C 26,1 km/h
21.11.2017 12:00 8,5 C 82 % 1013,4 hPa 0,3 l/m 7,5 km/h N 5,6 C 7,7 C 26,5 km/h
21.11.2017 13:00 9,1 C 80 % 1013,2 hPa 0,0 l/m 7,6 km/h N 5,9 C 8,2 C 22,5 km/h
21.11.2017 14:00 9,7 C 79 % 1013,1 hPa 0,0 l/m 10,6 km/h N 6,1 C 6,9 C 29,4 km/h
21.11.2017 15:00 9,5 C 78 % 1013,4 hPa 0,0 l/m 11,6 km/h N 5,9 C 6,1 C 32,2 km/h
21.11.2017 16:00 9,6 C 76 % 1013,2 hPa 0,0 l/m 12,4 km/h N 5,5 C 5,9 C 35,0 km/h
21.11.2017 17:00 9,6 C 76 % 1013,3 hPa 0,3 l/m 14,4 km/h N 5,7 C 4,9 C 33,0 km/h
21.11.2017 18:00 9,6 C 79 % 1013,4 hPa 0,0 l/m 12,1 km/h N 6,0 C 6,0 C 31,8 km/h
21.11.2017 19:00 9,6 C 80 % 1013,5 hPa 0,3 l/m 10,3 km/h N 6,3 C 6,9 C 29,0 km/h
21.11.2017 20:00 9,6 C 81 % 1013,6 hPa 0,5 l/m 9,7 km/h N 6,4 C 7,3 C 29,0 km/h
21.11.2017 21:00 10,2 C 80 % 1013,4 hPa 0,3 l/m 9,8 km/h N 6,8 C 7,9 C 27,0 km/h
21.11.2017 22:00 10,3 C 78 % 1013,3 hPa 0,5 l/m 8,6 km/h N 6,7 C 8,7 C 26,6 km/h
21.11.2017 23:00 10,0 C 80 % 1013,3 hPa 0,5 l/m 5,0 km/h N 6,7 C 10,0 C 16,5 km/h
22.11.2017 00:00 10,3 C 78 % 1012,9 hPa 0,0 l/m 5,1 km/h N 6,5 C 10,1 C 16,9 km/h
22.11.2017 01:00 10,7 C 74 % 1012,9 hPa 0,0 l/m 8,1 km/h N 6,1 C 9,5 C 22,5 km/h
22.11.2017 02:00 10,5 C 73 % 1012,8 hPa 0,0 l/m 6,7 km/h N 5,8 C 9,8 C 18,5 km/h
22.11.2017 03:00 10,6 C 71 % 1012,5 hPa 0,0 l/m 5,8 km/h N 5,6 C 10,3 C 20,5 km/h
22.11.2017 04:00 11,2 C 67 % 1012,7 hPa 0,0 l/m 7,3 km/h N 5,3 C 10,5 C 20,5 km/h
22.11.2017 05:00 11,2 C 66 % 1012,6 hPa 0,0 l/m 7,7 km/h N 5,1 C 10,2 C 19,7 km/h
22.11.2017 06:00 11,2 C 65 % 1012,5 hPa 0,0 l/m 9,6 km/h N 4,9 C 9,2 C 22,1 km/h
22.11.2017 07:00 11,6 C 63 % 1012,5 hPa 0,0 l/m 11,3 km/h N 4,8 C 8,7 C 26,6 km/h
22.11.2017 08:00 12,1 C 62 % 1012,5 hPa 0,0 l/m 10,5 km/h N 4,9 C 9,6 C 27,4 km/h
22.11.2017 09:00 13,2 C 57 % 1012,7 hPa 0,0 l/m 7,8 km/h N 4,9 C 12,4 C 23,3 km/h
22.11.2017 10:00 14,2 C 54 % 1013,2 hPa 0,0 l/m 8,1 km/h N 5,1 C 13,2 C 22,1 km/h
22.11.2017 11:00 15,0 C 51 % 1013,1 hPa 0,0 l/m 11,5 km/h N 4,9 C 12,5 C 27,4 km/h
22.11.2017 12:00 15,8 C 49 % 1012,6 hPa 0,0 l/m 10,3 km/h N 5,1 C 13,9 C 27,8 km/h
22.11.2017 13:00 16,2 C 47 % 1012,1 hPa 0,0 l/m 12,8 km/h N 4,7 C 13,4 C 33,4 km/h
22.11.2017 14:00 16,4 C 46 % 1011,6 hPa 0,0 l/m 11,6 km/h N 4,6 C 14,0 C 31,0 km/h
22.11.2017 15:00 15,8 C 46 % 1011,5 hPa 0,0 l/m 10,8 km/h N 4,2 C 13,8 C 31,8 km/h
22.11.2017 16:00 15,0 C 49 % 1012,2 hPa 0,0 l/m 1,7 km/h N 4,3 C 15,0 C 12,1 km/h
22.11.2017 17:00 12,9 C 55 % 1012,6 hPa 0,0 l/m 0,2 km/h N 4,1 C 12,9 C 3,2 km/h
22.11.2017 18:00 9,6 C 64 % 1013,0 hPa 0,0 l/m 0,0 km/h N 3,2 C 9,6 C 0,8 km/h
22.11.2017 19:00 7,1 C 71 % 1013,2 hPa 0,0 l/m 0,0 km/h N 2,2 C 7,1 C 0,0 km/h
22.11.2017 20:00 5,2 C 76 % 1013,3 hPa 0,0 l/m 0,0 km/h N 1,3 C 5,2 C 0,0 km/h
22.11.2017 21:00 4,3 C 80 % 1013,5 hPa 0,0 l/m 0,0 km/h N 1,2 C 4,3 C 0,4 km/h
22.11.2017 22:00 4,5 C 81 % 1013,9 hPa 0,0 l/m 0,0 km/h N 1,5 C 4,5 C 0,0 km/h
22.11.2017 23:00 2,9 C 82 % 1014,2 hPa 0,0 l/m 0,0 km/h N 0,1 C 2,9 C 0,0 km/h
23.11.2017 00:00 1,7 C 83 % 1014,0 hPa 0,0 l/m 0,0 km/h N -0,9 C 1,7 C 0,0 km/h
23.11.2017 01:00 1,1 C 83 % 1014,0 hPa 0,0 l/m 0,0 km/h N -1,4 C 1,1 C 0,0 km/h
23.11.2017 02:00 0,0 C 84 % 1014,1 hPa 0,0 l/m 0,0 km/h N -2,3 C 0,0 C 0,0 km/h
23.11.2017 03:00 -0,6 C 84 % 1014,0 hPa 0,0 l/m 0,0 km/h N -3,0 C -0,6 C 0,0 km/h
23.11.2017 04:00 -1,1 C 84 % 1014,0 hPa 0,0 l/m 0,0 km/h N -3,5 C -1,1 C 0,0 km/h
23.11.2017 05:00 -1,6 C 84 % 1013,9 hPa 0,0 l/m 0,0 km/h N -3,9 C -1,6 C 0,0 km/h
23.11.2017 06:00 -0,9 C 84 % 1014,5 hPa 0,0 l/m 0,0 km/h N -3,3 C -0,9 C 0,0 km/h
23.11.2017 07:00 0,3 C 84 % 1014,7 hPa 0,0 l/m 0,0 km/h N -2,2 C 0,3 C 0,4 km/h
23.11.2017 08:00 2,2 C 84 % 1015,0 hPa 0,0 l/m 0,1 km/h N -0,2 C 2,2 C 3,2 km/h
23.11.2017 09:00 3,1 C 84 % 1015,2 hPa 0,0 l/m 0,0 km/h N 0,7 C 3,1 C 2,0 km/h
23.11.2017 10:00 3,1 C 84 % 1015,3 hPa 0,0 l/m 0,0 km/h N 0,7 C 3,1 C 0,8 km/h
23.11.2017 11:00 3,5 C 84 % 1015,2 hPa 0,0 l/m 0,0 km/h N 1,1 C 3,5 C 0,4 km/h
23.11.2017 12:00 3,7 C 84 % 1015,5 hPa 0,0 l/m 0,0 km/h N 1,3 C 3,7 C 0,4 km/h
23.11.2017 13:00 3,9 C 84 % 1016,4 hPa 0,0 l/m 0,4 km/h N 1,4 C 3,9 C 4,4 km/h
23.11.2017 14:00 4,3 C 84 % 1016,4 hPa 0,0 l/m 0,1 km/h N 1,9 C 4,3 C 3,2 km/h
23.11.2017 15:00 4,7 C 84 % 1016,8 hPa 0,0 l/m 0,0 km/h N 2,3 C 4,7 C 0,0 km/h
23.11.2017 16:00 4,8 C 84 % 1017,3 hPa 0,0 l/m 0,0 km/h N 2,3 C 4,8 C 0,4 km/h
23.11.2017 17:00 4,6 C 84 % 1017,6 hPa 0,0 l/m 0,0 km/h N 2,1 C 4,6 C 1,6 km/h
23.11.2017 18:00 4,4 C 84 % 1018,0 hPa 0,0 l/m 0,0 km/h N 1,9 C 4,4 C 2,4 km/h
23.11.2017 19:00 4,0 C 84 % 1018,1 hPa 0,0 l/m 0,1 km/h N 1,6 C 4,0 C 2,8 km/h
23.11.2017 20:00 3,8 C 84 % 1018,3 hPa 0,0 l/m 0,7 km/h N 1,4 C 3,8 C 4,8 km/h
23.11.2017 21:00 3,8 C 84 % 1018,6 hPa 0,0 l/m 0,0 km/h N 1,3 C 3,8 C 0,4 km/h
23.11.2017 22:00 3,6 C 84 % 1018,8 hPa 0,0 l/m 0,0 km/h N 1,1 C 3,6 C 1,2 km/h
23.11.2017 23:00 3,4 C 84 % 1019,1 hPa 0,0 l/m 0,0 km/h N 1,0 C 3,4 C 0,0 km/h
24.11.2017 00:00 3,6 C 84 % 1019,2 hPa 0,0 l/m 0,0 km/h N 1,2 C 3,6 C 0,0 km/h
24.11.2017 01:00 3,9 C 84 % 1019,3 hPa 0,0 l/m 0,0 km/h N 1,5 C 3,9 C 0,8 km/h
24.11.2017 02:00 4,0 C 84 % 1019,3 hPa 0,0 l/m 0,0 km/h N 1,5 C 4,0 C 0,0 km/h
24.11.2017 03:00 3,7 C 84 % 1019,1 hPa 0,0 l/m 0,0 km/h N 1,3 C 3,7 C 2,8 km/h
24.11.2017 04:00 3,4 C 84 % 1019,3 hPa 0,0 l/m 0,0 km/h N 1,0 C 3,4 C 3,2 km/h
24.11.2017 05:00 3,3 C 84 % 1019,4 hPa 0,0 l/m 0,5 km/h N 0,9 C 3,3 C 5,2 km/h
24.11.2017 06:00 3,2 C 84 % 1019,4 hPa 0,0 l/m 0,5 km/h N 0,8 C 3,2 C 4,4 km/h
24.11.2017 07:00 3,1 C 84 % 1019,5 hPa 0,0 l/m 0,0 km/h N 0,7 C 3,1 C 2,4 km/h
24.11.2017 08:00 3,2 C 84 % 1019,4 hPa 0,0 l/m 0,5 km/h N 0,7 C 3,2 C 6,8 km/h
24.11.2017 09:00 3,1 C 84 % 1019,3 hPa 0,0 l/m 0,7 km/h N 0,7 C 3,1 C 8,1 km/h
24.11.2017 10:00 3,3 C 84 % 1019,4 hPa 0,0 l/m 0,3 km/h N 0,8 C 3,3 C 4,4 km/h
24.11.2017 11:00 3,6 C 84 % 1019,0 hPa 0,0 l/m 0,2 km/h N 1,2 C 3,6 C 2,8 km/h
24.11.2017 12:00 4,2 C 84 % 1018,7 hPa 0,0 l/m 0,0 km/h N 1,7 C 4,2 C 1,2 km/h
24.11.2017 13:00 4,7 C 84 % 1018,2 hPa 0,0 l/m 0,1 km/h N 2,3 C 4,7 C 2,0 km/h
24.11.2017 14:00 4,9 C 84 % 1018,0 hPa 0,0 l/m 0,0 km/h N 2,5 C 4,9 C 0,8 km/h
24.11.2017 15:00 4,9 C 84 % 1018,1 hPa 0,0 l/m 0,2 km/h N 2,5 C 4,9 C 4,0 km/h
24.11.2017 16:00 4,8 C 84 % 1018,2 hPa 0,0 l/m 0,1 km/h N 2,3 C 4,8 C 3,2 km/h
24.11.2017 17:00 4,7 C 84 % 1018,3 hPa 0,0 l/m 0,2 km/h N 2,2 C 4,7 C 4,4 km/h
24.11.2017 18:00 4,4 C 84 % 1018,1 hPa 0,0 l/m 0,1 km/h N 2,0 C 4,4 C 4,0 km/h
24.11.2017 19:00 4,3 C 84 % 1018,0 hPa 0,0 l/m 0,7 km/h N 1,8 C 4,3 C 7,6 km/h
24.11.2017 20:00 4,2 C 84 % 1017,9 hPa 0,0 l/m 0,3 km/h N 1,7 C 4,2 C 4,8 km/h
24.11.2017 21:00 4,2 C 84 % 1017,5 hPa 0,0 l/m 0,2 km/h N 1,7 C 4,2 C 4,8 km/h
24.11.2017 22:00 4,2 C 84 % 1017,3 hPa 0,0 l/m 0,2 km/h N 1,7 C 4,2 C 3,2 km/h
24.11.2017 23:00 4,1 C 84 % 1017,2 hPa 0,0 l/m 0,1 km/h N 1,7 C 4,1 C 2,4 km/h
25.11.2017 00:00 4,2 C 84 % 1016,9 hPa 0,3 l/m 0,0 km/h N 1,7 C 4,2 C 0,0 km/h
25.11.2017 01:00 4,1 C 84 % 1016,9 hPa 0,0 l/m 0,1 km/h N 1,6 C 4,1 C 2,8 km/h
25.11.2017 02:00 4,1 C 84 % 1016,5 hPa 0,0 l/m 0,0 km/h N 1,6 C 4,1 C 1,6 km/h
25.11.2017 03:00 4,0 C 84 % 1015,7 hPa 0,0 l/m 0,0 km/h N 1,5 C 4,0 C 0,8 km/h
25.11.2017 04:00 3,9 C 84 % 1015,1 hPa 0,0 l/m 0,0 km/h N 1,5 C 3,9 C 1,2 km/h
25.11.2017 05:00 4,0 C 84 % 1014,3 hPa 0,0 l/m 0,1 km/h N 1,6 C 4,0 C 2,0 km/h
25.11.2017 06:00 4,2 C 85 % 1013,3 hPa 0,0 l/m 0,0 km/h N 1,8 C 4,2 C 2,0 km/h
25.11.2017 07:00 4,3 C 84 % 1012,6 hPa 0,0 l/m 0,1 km/h N 1,9 C 4,3 C 3,2 km/h
25.11.2017 08:00 4,5 C 84 % 1012,0 hPa 0,0 l/m 0,2 km/h N 2,0 C 4,5 C 3,6 km/h
25.11.2017 09:00 4,5 C 84 % 1010,8 hPa 0,0 l/m 0,3 km/h N 2,0 C 4,5 C 4,0 km/h
25.11.2017 10:00 4,6 C 85 % 1009,3 hPa 0,3 l/m 0,1 km/h N 2,3 C 4,6 C 2,8 km/h
25.11.2017 11:00 5,0 C 85 % 1007,5 hPa 0,0 l/m 0,0 km/h N 2,6 C 5,0 C 1,2 km/h
25.11.2017 12:00 5,8 C 84 % 1006,1 hPa 0,0 l/m 0,1 km/h N 3,4 C 5,8 C 1,2 km/h
25.11.2017 13:00 6,4 C 84 % 1005,6 hPa 0,0 l/m 0,5 km/h N 3,9 C 6,4 C 5,2 km/h
25.11.2017 14:00 7,0 C 84 % 1005,8 hPa 0,0 l/m 3,5 km/h N 4,5 C 7,0 C 8,8 km/h
25.11.2017 15:00 6,7 C 84 % 1007,6 hPa 0,0 l/m 3,9 km/h N 4,2 C 6,7 C 11,2 km/h
25.11.2017 16:00 7,0 C 84 % 1008,6 hPa 0,0 l/m 8,1 km/h N 4,4 C 5,5 C 25,3 km/h
25.11.2017 17:00 8,8 C 77 % 1009,9 hPa 0,0 l/m 16,2 km/h N 4,9 C 3,2 C 35,8 km/h
25.11.2017 18:00 8,4 C 77 % 1010,8 hPa 0,0 l/m 14,7 km/h N 4,5 C 3,4 C 39,4 km/h
25.11.2017 19:00 8,2 C 76 % 1011,9 hPa 0,0 l/m 11,6 km/h N 4,2 C 4,8 C 39,0 km/h
25.11.2017 20:00 8,2 C 76 % 1012,8 hPa 0,0 l/m 9,5 km/h N 4,2 C 5,9 C 25,7 km/h
25.11.2017 21:00 8,2 C 75 % 1012,9 hPa 0,0 l/m 11,1 km/h N 4,0 C 5,1 C 26,5 km/h
25.11.2017 22:00 8,1 C 74 % 1013,0 hPa 0,0 l/m 13,3 km/h N 3,7 C 3,7 C 29,0 km/h
25.11.2017 23:00 7,9 C 74 % 1013,3 hPa 0,0 l/m 12,1 km/h N 3,5 C 4,0 C 32,2 km/h
26.11.2017 00:00 7,5 C 75 % 1013,8 hPa 0,0 l/m 11,4 km/h N 3,3 C 4,0 C 28,6 km/h
26.11.2017 01:00 7,4 C 75 % 1014,4 hPa 0,0 l/m 10,0 km/h N 3,2 C 4,7 C 26,1 km/h
26.11.2017 02:00 7,2 C 75 % 1015,2 hPa 0,0 l/m 5,1 km/h N 3,0 C 7,2 C 18,1 km/h
26.11.2017 03:00 6,4 C 80 % 1015,1 hPa 0,3 l/m 5,9 km/h N 3,2 C 5,6 C 16,1 km/h
26.11.2017 04:00 6,2 C 81 % 1015,5 hPa 0,0 l/m 2,1 km/h N 3,2 C 6,2 C 9,3 km/h
26.11.2017 05:00 5,8 C 83 % 1016,1 hPa 0,3 l/m 5,6 km/h N 3,0 C 5,7 C 18,5 km/h
26.11.2017 06:00 5,5 C 83 % 1016,9 hPa 0,0 l/m 6,1 km/h N 2,7 C 5,3 C 16,9 km/h
26.11.2017 07:00 5,4 C 78 % 1017,8 hPa 0,0 l/m 8,5 km/h N 1,9 C 3,6 C 21,3 km/h
26.11.2017 08:00 5,2 C 75 % 1018,9 hPa 0,0 l/m 8,3 km/h N 1,0 C 3,6 C 22,9 km/h
26.11.2017 09:00 5,0 C 72 % 1019,7 hPa 0,0 l/m 10,2 km/h N 0,3 C 1,9 C 26,2 km/h
26.11.2017 10:00 5,0 C 70 % 1020,3 hPa 0,0 l/m 10,6 km/h N -0,1 C 1,6 C 25,0 km/h
26.11.2017 11:00 5,1 C 68 % 1020,5 hPa 0,0 l/m 11,4 km/h N -0,4 C 1,2 C 29,8 km/h
26.11.2017 12:00 5,2 C 69 % 1020,5 hPa 0,0 l/m 10,8 km/h N -0,1 C 1,8 C 24,5 km/h
26.11.2017 13:00 5,0 C 73 % 1020,5 hPa 0,0 l/m 9,9 km/h N 0,5 C 2,1 C 24,5 km/h
26.11.2017 14:00 4,7 C 72 % 1020,8 hPa 0,0 l/m 12,1 km/h N 0,1 C 0,4 C 26,9 km/h
26.11.2017 15:00 4,2 C 73 % 1021,3 hPa 0,0 l/m 12,2 km/h N -0,2 C -0,3 C 29,0 km/h
26.11.2017 16:00 3,8 C 72 % 1021,7 hPa 0,0 l/m 9,1 km/h N -0,7 C 1,5 C 22,5 km/h
26.11.2017 17:00 3,7 C 69 % 1022,2 hPa 0,0 l/m 8,3 km/h N -1,5 C 2,0 C 24,1 km/h
26.11.2017 18:00 3,8 C 67 % 1022,4 hPa 0,0 l/m 10,4 km/h N -1,9 C 0,4 C 27,0 km/h
26.11.2017 19:00 3,3 C 69 % 1022,8 hPa 0,0 l/m 6,3 km/h N -1,8 C 2,3 C 20,5 km/h
26.11.2017 20:00 3,1 C 71 % 1023,3 hPa 0,0 l/m 5,9 km/h N -1,7 C 2,2 C 18,9 km/h
26.11.2017 21:00 2,8 C 75 % 1023,6 hPa 0,0 l/m 8,0 km/h N -1,2 C 1,3 C 21,3 km/h
26.11.2017 22:00 2,6 C 74 % 1023,6 hPa 0,0 l/m 8,6 km/h N -1,6 C 0,5 C 22,1 km/h
26.11.2017 23:00 2,8 C 73 % 1023,2 hPa 0,0 l/m 11,2 km/h N -1,5 C -1,2 C 26,1 km/h
Min-Datum _ 23.11.17 22.11.17 25.11.17 - 21.11.17 - 23.11.17 20.11.17 21.11.17
_ Min-Zeit 05:15 14:00 13:45 - 00:00 - 05:15 00:00 01:00
Minimum _ -1,6 C 45 % 1005,4 hPa - 0,0 km/h - -3,9 C -3,1 C 0,0 km/h
Max-Datum _ 22.11.17 25.11.17 26.11.17 21.11.17 20.11.17 - 21.11.17 22.11.17 20.11.17
_ Max-Zeit 14:00 05:45 21:15 05:15 00:00 - 21:45 15:45 00:00
Maximum _ 16,4 C 85 % 1023,6 hPa 3,1 l/m 20,8 km/h
N
- 6,8 C 15,4 C 49,9 km/h
N
Durchschnitt _ 5,8 C 77 % 1015,7 hPa #17,4 l/m 5,4 km/h N 1,9 C 4,3 C 15,6 km/h